createdAt,value
2018-11-14T00:01:32.915Z,11.60
2018-11-14T00:04:08.191Z,11.70
2018-11-14T00:06:43.521Z,11.60
2018-11-14T00:09:19.138Z,11.60
2018-11-14T00:11:54.644Z,11.60
2018-11-14T00:14:30.095Z,11.60
2018-11-14T00:17:05.744Z,11.50
2018-11-14T00:19:41.394Z,11.50
2018-11-14T00:22:16.731Z,11.50
2018-11-14T00:24:52.352Z,11.50
2018-11-14T00:27:27.551Z,11.50
2018-11-14T00:30:03.181Z,11.40
2018-11-14T00:32:38.550Z,11.50
2018-11-14T00:35:14.202Z,11.50
2018-11-14T00:37:49.983Z,11.50
2018-11-14T00:40:25.525Z,11.50
2018-11-14T00:43:00.800Z,11.60
2018-11-14T00:45:36.135Z,11.50
2018-11-14T00:48:11.484Z,11.60
2018-11-14T00:50:47.082Z,11.60
2018-11-14T00:53:22.643Z,11.70
2018-11-14T00:55:58.170Z,11.60
2018-11-14T00:58:33.511Z,11.60
2018-11-14T01:01:08.730Z,11.70
2018-11-14T01:03:44.174Z,11.60
2018-11-14T01:06:19.572Z,11.60
2018-11-14T01:08:54.963Z,11.70
2018-11-14T01:11:30.060Z,11.70
2018-11-14T01:14:05.704Z,11.60
2018-11-14T01:16:41.229Z,11.70
2018-11-14T01:19:16.814Z,11.60
2018-11-14T01:21:52.427Z,11.60
2018-11-14T01:24:27.990Z,11.60
2018-11-14T01:27:03.483Z,11.60
2018-11-14T01:29:38.964Z,11.60
2018-11-14T01:32:14.379Z,11.60
2018-11-14T01:34:49.621Z,11.60
2018-11-14T01:37:24.979Z,11.60
2018-11-14T01:40:00.644Z,11.60
2018-11-14T01:42:36.084Z,11.60
2018-11-14T01:45:12.091Z,11.60
2018-11-14T01:47:47.469Z,11.60
2018-11-14T01:50:22.930Z,11.60
2018-11-14T01:52:58.485Z,11.50
2018-11-14T01:55:33.934Z,11.50
2018-11-14T01:58:09.572Z,11.50
2018-11-14T02:00:45.214Z,11.40
2018-11-14T02:03:20.666Z,11.40
2018-11-14T02:05:56.014Z,11.40
2018-11-14T02:08:31.325Z,11.40
2018-11-14T02:11:06.904Z,11.30
2018-11-14T02:13:42.017Z,11.40
2018-11-14T02:16:17.342Z,11.40
2018-11-14T02:18:52.675Z,11.30
2018-11-14T02:21:27.993Z,11.30
2018-11-14T02:24:03.503Z,11.30
2018-11-14T02:26:38.895Z,11.30
2018-11-14T02:29:14.284Z,11.20
2018-11-14T02:31:49.706Z,11.10
2018-11-14T02:34:25.380Z,11.20
2018-11-14T02:37:00.933Z,11.20
2018-11-14T02:39:36.237Z,11.10
2018-11-14T02:42:11.671Z,11.10
2018-11-14T02:44:46.954Z,11.10
2018-11-14T02:47:22.274Z,11.10
2018-11-14T02:49:57.849Z,11.10
2018-11-14T02:52:33.062Z,11.10
2018-11-14T02:55:09.594Z,11.20
2018-11-14T02:57:45.410Z,11.20
2018-11-14T03:00:21.744Z,11.20
2018-11-14T03:02:57.161Z,11.30
2018-11-14T03:05:32.511Z,11.30
2018-11-14T03:08:07.986Z,11.30
2018-11-14T03:10:43.546Z,11.30
2018-11-14T03:13:19.158Z,11.30
2018-11-14T03:15:54.724Z,11.20
2018-11-14T03:18:30.260Z,11.30
2018-11-14T03:21:05.811Z,11.20
2018-11-14T03:23:40.981Z,11.20
2018-11-14T03:26:16.298Z,11.30
2018-11-14T03:28:51.595Z,11.30
2018-11-14T03:31:26.825Z,11.40
2018-11-14T03:34:02.227Z,11.40
2018-11-14T03:36:37.575Z,11.40
2018-11-14T03:39:13.085Z,11.50
2018-11-14T03:41:48.481Z,11.50
2018-11-14T03:44:23.946Z,11.60
2018-11-14T03:46:59.301Z,11.50
2018-11-14T03:49:34.785Z,11.50
2018-11-14T03:52:10.244Z,11.50
2018-11-14T03:54:45.410Z,11.50
2018-11-14T03:57:20.774Z,11.40
2018-11-14T03:59:56.001Z,11.40
2018-11-14T04:02:31.675Z,11.40
2018-11-14T04:05:07.167Z,11.30
2018-11-14T04:07:42.873Z,11.30
2018-11-14T04:10:18.405Z,11.20
2018-11-14T04:12:53.561Z,11.10
2018-11-14T04:15:29.050Z,11.10
2018-11-14T04:18:04.513Z,11.10
2018-11-14T04:20:39.774Z,11.00
2018-11-14T04:23:15.071Z,10.90
2018-11-14T04:25:50.682Z,10.80
2018-11-14T04:28:26.081Z,10.70
2018-11-14T04:31:01.351Z,10.70
2018-11-14T04:33:36.701Z,10.70
2018-11-14T04:36:11.935Z,10.70
2018-11-14T04:38:47.390Z,10.60
2018-11-14T04:41:22.724Z,10.60
2018-11-14T04:43:58.334Z,10.50
2018-11-14T04:46:33.591Z,10.40
2018-11-14T04:49:09.111Z,10.40
2018-11-14T04:51:44.591Z,10.30
2018-11-14T04:54:20.003Z,10.30
2018-11-14T04:56:55.404Z,10.30
2018-11-14T04:59:30.911Z,10.20
2018-11-14T05:02:06.366Z,10.20
2018-11-14T05:04:41.923Z,10.20
2018-11-14T05:07:17.374Z,10.10
2018-11-14T05:09:53.104Z,10.00
2018-11-14T05:12:28.455Z,10.00
2018-11-14T05:15:04.061Z,10.00
2018-11-14T05:17:39.434Z,10.00
2018-11-14T05:20:16.031Z,10.00
2018-11-14T05:22:51.678Z,9.90
2018-11-14T05:25:27.052Z,9.90
2018-11-14T05:28:02.263Z,9.80
2018-11-14T05:30:38.481Z,9.80
2018-11-14T05:33:13.931Z,9.80
2018-11-14T05:35:49.331Z,9.80
2018-11-14T05:38:24.627Z,9.70
2018-11-14T05:40:59.818Z,9.60
2018-11-14T05:43:35.161Z,9.60
2018-11-14T05:46:10.824Z,9.50
2018-11-14T05:48:46.280Z,9.50
2018-11-14T05:51:21.457Z,9.40
2018-11-14T05:53:57.027Z,9.40
2018-11-14T05:56:32.527Z,9.40
2018-11-14T05:59:07.967Z,9.30
2018-11-14T06:01:43.408Z,9.30
2018-11-14T06:04:18.844Z,9.20
2018-11-14T06:06:54.330Z,9.20
2018-11-14T06:09:29.720Z,9.20
2018-11-14T06:12:05.397Z,9.20
2018-11-14T06:14:40.945Z,9.10
2018-11-14T06:17:16.177Z,9.20
2018-11-14T06:19:51.485Z,9.10
2018-11-14T06:22:27.073Z,9.10
2018-11-14T06:25:37.402Z,9.10
2018-11-14T06:28:12.845Z,9.10
2018-11-14T06:30:48.407Z,9.10
2018-11-14T06:33:23.798Z,9.10
2018-11-14T06:35:59.281Z,9.10
2018-11-14T06:38:34.545Z,9.10
2018-11-14T06:41:09.960Z,9.20
2018-11-14T06:43:45.326Z,9.10
2018-11-14T06:46:20.534Z,9.10
2018-11-14T06:48:56.001Z,9.10
2018-11-14T06:51:31.323Z,9.20
2018-11-14T06:54:06.705Z,9.30
2018-11-14T06:56:41.820Z,9.40
2018-11-14T06:59:17.140Z,9.40
2018-11-14T07:01:52.296Z,9.50
2018-11-14T07:04:27.374Z,9.60
2018-11-14T07:07:03.019Z,9.60
2018-11-14T07:09:38.431Z,9.60
2018-11-14T07:12:13.661Z,9.70
2018-11-14T07:14:48.841Z,9.70
2018-11-14T07:17:24.296Z,9.80
2018-11-14T07:19:59.681Z,9.80
2018-11-14T07:22:35.044Z,9.90
2018-11-14T07:25:10.484Z,9.80
2018-11-14T07:27:45.870Z,9.90
2018-11-14T07:30:23.100Z,9.90
2018-11-14T07:33:00.555Z,10.00
2018-11-14T07:35:35.890Z,10.10
2018-11-14T07:38:45.056Z,10.00
2018-11-14T07:41:24.450Z,10.10
2018-11-14T07:43:59.902Z,10.10
2018-11-14T07:46:35.653Z,10.20
2018-11-14T07:49:11.449Z,10.20
2018-11-14T07:51:46.781Z,10.20
2018-11-14T07:54:22.203Z,10.30
2018-11-14T07:56:57.702Z,10.30
2018-11-14T07:59:33.093Z,10.30
2018-11-14T08:02:08.388Z,10.30
2018-11-14T08:04:43.614Z,10.30
2018-11-14T08:07:18.842Z,10.40
2018-11-14T08:09:54.315Z,10.40
2018-11-14T08:12:29.624Z,10.40
2018-11-14T08:15:05.117Z,10.40
2018-11-14T08:17:40.502Z,10.50
2018-11-14T08:20:15.991Z,10.40
2018-11-14T08:22:51.313Z,10.50
2018-11-14T08:25:26.675Z,10.50
2018-11-14T08:28:01.952Z,10.50
2018-11-14T08:30:37.522Z,10.50
2018-11-14T08:33:12.871Z,10.60
2018-11-14T08:35:48.335Z,10.60
2018-11-14T08:38:23.696Z,10.60
2018-11-14T08:40:59.234Z,10.60
2018-11-14T08:43:34.819Z,10.60
2018-11-14T08:46:10.362Z,10.60
2018-11-14T08:48:45.793Z,10.60
2018-11-14T08:51:21.123Z,10.70
2018-11-14T08:53:56.533Z,10.70
2018-11-14T08:56:31.885Z,10.60
2018-11-14T08:59:07.302Z,10.60
2018-11-14T09:01:42.681Z,10.70
2018-11-14T09:04:17.926Z,10.80
2018-11-14T09:06:53.369Z,10.80
2018-11-14T09:09:28.605Z,10.90
2018-11-14T09:12:04.224Z,10.90
2018-11-14T09:14:40.108Z,10.90
2018-11-14T09:17:15.508Z,10.90
2018-11-14T09:19:51.091Z,11.00
2018-11-14T09:22:26.543Z,11.00
2018-11-14T09:25:02.100Z,11.00
2018-11-14T09:27:37.139Z,10.90
2018-11-14T09:30:15.904Z,10.90
2018-11-14T09:32:51.180Z,10.90
2018-11-14T09:35:27.184Z,10.90
2018-11-14T09:38:02.268Z,10.80
2018-11-14T09:40:37.827Z,10.80
2018-11-14T09:43:13.283Z,10.70
2018-11-14T09:45:49.026Z,10.70
2018-11-14T09:48:24.405Z,10.80
2018-11-14T09:50:59.771Z,10.80
2018-11-14T09:53:35.156Z,10.80
2018-11-14T09:56:10.804Z,10.80
2018-11-14T09:58:46.223Z,10.80
2018-11-14T10:01:21.567Z,10.80
2018-11-14T10:03:56.805Z,10.70
2018-11-14T10:06:32.210Z,10.90
2018-11-14T10:09:10.644Z,10.90
2018-11-14T10:11:45.927Z,10.90
2018-11-14T10:14:21.313Z,10.90
2018-11-14T10:16:56.527Z,11.00
2018-11-14T10:19:31.916Z,10.90
2018-11-14T10:22:07.130Z,10.80
2018-11-14T10:24:42.294Z,10.80
2018-11-14T10:27:17.634Z,10.80
2018-11-14T10:29:52.842Z,10.90
2018-11-14T10:32:28.164Z,10.80
2018-11-14T10:35:03.519Z,10.70
2018-11-14T10:37:39.092Z,10.80
2018-11-14T10:40:17.759Z,10.80
2018-11-14T10:42:53.239Z,10.90
2018-11-14T10:45:28.506Z,10.90
2018-11-14T10:48:03.859Z,10.90
2018-11-14T10:50:39.128Z,10.90
2018-11-14T10:53:14.505Z,10.80
2018-11-14T10:55:49.829Z,10.90
2018-11-14T10:58:25.317Z,10.80
2018-11-14T11:01:05.726Z,10.90
2018-11-14T11:03:46.137Z,10.80
2018-11-14T11:06:26.680Z,10.90
2018-11-14T11:09:07.132Z,10.90
2018-11-14T11:11:48.024Z,10.90
2018-11-14T11:14:28.753Z,10.90
2018-11-14T11:17:09.154Z,10.90
2018-11-14T11:19:44.444Z,10.90
2018-11-14T11:22:19.742Z,10.90
2018-11-14T11:24:55.005Z,11.00
2018-11-14T11:27:30.369Z,11.00
2018-11-14T11:30:06.832Z,11.00
2018-11-14T11:32:42.252Z,11.10
2018-11-14T11:35:17.753Z,11.10
2018-11-14T11:37:53.173Z,11.10
2018-11-14T11:40:28.628Z,11.10
2018-11-14T11:43:05.054Z,11.10
2018-11-14T11:45:40.239Z,11.10
2018-11-14T11:48:15.626Z,11.10
2018-11-14T11:50:51.164Z,11.10
2018-11-14T11:53:26.563Z,11.20
2018-11-14T11:56:01.883Z,11.10
2018-11-14T11:58:37.253Z,11.20
2018-11-14T12:01:12.480Z,11.20
2018-11-14T12:03:47.898Z,11.20
2018-11-14T12:06:23.472Z,11.30
2018-11-14T12:08:59.106Z,11.30
2018-11-14T12:11:34.193Z,11.30
2018-11-14T12:14:09.840Z,11.40
2018-11-14T12:16:45.147Z,11.30
2018-11-14T12:19:20.529Z,11.40
2018-11-14T12:21:55.589Z,11.30
2018-11-14T12:24:30.973Z,11.40
2018-11-14T12:27:06.481Z,11.40
2018-11-14T12:29:41.969Z,11.40
2018-11-14T12:32:17.491Z,11.40
2018-11-14T12:34:52.965Z,11.40
2018-11-14T12:37:28.183Z,11.40
2018-11-14T12:40:03.486Z,11.30
2018-11-14T12:42:38.832Z,11.40
2018-11-14T12:45:15.769Z,11.40
2018-11-14T12:47:51.231Z,11.50
2018-11-14T12:50:26.618Z,11.40
2018-11-14T12:53:02.255Z,11.50
2018-11-14T12:55:37.513Z,11.50
2018-11-14T12:58:12.961Z,11.50
2018-11-14T13:00:48.450Z,11.50
2018-11-14T13:03:23.860Z,11.50
2018-11-14T13:05:59.263Z,11.50
2018-11-14T13:08:34.443Z,11.50
2018-11-14T13:11:09.738Z,11.50
2018-11-14T13:13:46.975Z,11.50
2018-11-14T13:16:22.315Z,11.50
2018-11-14T13:18:57.784Z,11.50
2018-11-14T13:21:33.282Z,11.60
2018-11-14T13:24:08.641Z,11.60
2018-11-14T13:26:44.175Z,11.60
2018-11-14T13:29:19.483Z,11.50
2018-11-14T13:31:54.816Z,11.60
2018-11-14T13:34:30.309Z,11.60
2018-11-14T13:37:05.872Z,11.60
2018-11-14T13:39:41.213Z,11.60
2018-11-14T13:42:16.533Z,11.70
2018-11-14T13:44:52.353Z,11.60
2018-11-14T13:47:27.782Z,11.70
2018-11-14T13:50:03.206Z,11.70
2018-11-14T13:52:39.521Z,11.70
2018-11-14T13:55:16.512Z,11.70
2018-11-14T13:57:52.797Z,11.70
2018-11-14T14:00:28.018Z,11.70
2018-11-14T14:03:03.363Z,11.80
2018-11-14T14:05:38.531Z,11.80
2018-11-14T14:08:13.990Z,11.70
2018-11-14T14:10:49.240Z,11.70
2018-11-14T14:13:24.793Z,11.70
2018-11-14T14:16:00.309Z,11.70
2018-11-14T14:18:35.698Z,11.70
2018-11-14T14:21:11.144Z,11.70
2018-11-14T14:23:46.450Z,11.60
2018-11-14T14:26:21.855Z,11.70
2018-11-14T14:28:57.387Z,11.50
2018-11-14T14:31:33.043Z,11.60
2018-11-14T14:34:08.454Z,11.50
2018-11-14T14:36:43.917Z,11.50
2018-11-14T14:39:19.252Z,11.50
2018-11-14T14:41:54.579Z,11.50
2018-11-14T14:44:30.038Z,11.50
2018-11-14T14:47:05.542Z,11.50
2018-11-14T14:49:40.921Z,11.50
2018-11-14T14:52:16.273Z,11.40
2018-11-14T14:54:51.450Z,11.50
2018-11-14T14:57:27.063Z,11.50
2018-11-14T15:00:02.479Z,11.50
2018-11-14T15:02:37.849Z,11.50
2018-11-14T15:05:13.913Z,11.40
2018-11-14T15:07:49.412Z,11.40
2018-11-14T15:10:25.196Z,11.40
2018-11-14T15:13:01.163Z,11.40
2018-11-14T15:15:36.845Z,11.40
2018-11-14T15:18:12.100Z,11.40
2018-11-14T15:20:47.390Z,11.40
2018-11-14T15:23:22.860Z,11.40
2018-11-14T15:25:58.180Z,11.30
2018-11-14T15:28:33.414Z,11.30
2018-11-14T15:31:09.020Z,11.30
2018-11-14T15:33:45.734Z,11.30
2018-11-14T15:36:21.283Z,11.20
2018-11-14T15:38:56.689Z,11.20
2018-11-14T15:41:32.040Z,11.20
2018-11-14T15:44:07.931Z,11.20
2018-11-14T15:46:45.108Z,11.10
2018-11-14T15:49:22.314Z,11.20
2018-11-14T15:51:58.357Z,11.10
2018-11-14T15:54:33.690Z,11.20
2018-11-14T15:57:09.084Z,11.10
2018-11-14T15:59:44.374Z,11.10
2018-11-14T16:02:19.553Z,11.10
2018-11-14T16:04:55.175Z,11.10
2018-11-14T16:07:30.515Z,11.00
2018-11-14T16:10:07.273Z,11.00
2018-11-14T16:12:43.243Z,10.90
2018-11-14T16:15:24.027Z,11.00
2018-11-14T16:17:59.489Z,11.00
2018-11-14T16:20:34.890Z,11.00
2018-11-14T16:23:10.443Z,11.00
2018-11-14T16:25:46.064Z,10.90
2018-11-14T16:28:21.523Z,11.00
2018-11-14T16:30:57.025Z,10.90
2018-11-14T16:33:32.422Z,10.90
2018-11-14T16:36:07.920Z,11.00
2018-11-14T16:38:43.427Z,11.00
2018-11-14T16:41:18.764Z,11.00
2018-11-14T16:43:53.950Z,11.00
2018-11-14T16:46:29.339Z,11.00
2018-11-14T16:49:04.675Z,10.90
2018-11-14T16:51:39.943Z,11.00
2018-11-14T16:54:15.265Z,11.00
2018-11-14T16:56:50.592Z,11.00
2018-11-14T16:59:25.890Z,11.00
2018-11-14T17:02:01.254Z,11.00
2018-11-14T17:04:36.740Z,11.00
2018-11-14T17:07:12.365Z,10.90
2018-11-14T17:09:47.670Z,11.00
2018-11-14T17:12:22.894Z,11.00
2018-11-14T17:14:58.301Z,11.00
2018-11-14T17:17:33.505Z,11.00
2018-11-14T17:20:09.790Z,11.00
2018-11-14T17:22:45.829Z,11.10
2018-11-14T17:25:21.471Z,11.10
2018-11-14T17:27:56.948Z,11.10
2018-11-14T17:30:32.495Z,11.10
2018-11-14T17:33:08.232Z,11.00
2018-11-14T17:35:43.466Z,11.00
2018-11-14T17:38:18.610Z,11.10
2018-11-14T17:40:53.971Z,11.10
2018-11-14T17:43:29.851Z,11.10
2018-11-14T17:46:05.860Z,11.10
2018-11-14T17:48:41.593Z,11.10
2018-11-14T17:51:16.946Z,11.10
2018-11-14T17:53:52.603Z,11.10
2018-11-14T17:56:27.650Z,11.20
2018-11-14T17:59:02.990Z,11.20
2018-11-14T18:01:38.553Z,11.20
2018-11-14T18:04:14.191Z,11.20
2018-11-14T18:06:49.533Z,11.30
2018-11-14T18:09:24.861Z,11.30
2018-11-14T18:12:00.430Z,11.30
2018-11-14T18:14:35.806Z,11.30
2018-11-14T18:17:11.213Z,11.30
2018-11-14T18:19:46.983Z,11.30
2018-11-14T18:22:22.346Z,11.30
2018-11-14T18:24:57.771Z,11.30
2018-11-14T18:27:33.095Z,11.30
2018-11-14T18:30:20.980Z,11.40
2018-11-14T18:32:57.164Z,11.30
2018-11-14T18:35:32.372Z,11.30
2018-11-14T18:38:08.000Z,11.30
2018-11-14T18:40:43.401Z,11.40
2018-11-14T18:43:18.715Z,11.30
2018-11-14T18:45:54.153Z,11.30
2018-11-14T18:48:29.573Z,11.30
2018-11-14T18:51:04.924Z,11.30
2018-11-14T18:53:40.264Z,11.30
2018-11-14T18:56:15.421Z,11.30
2018-11-14T18:58:50.906Z,11.30
2018-11-14T19:01:26.255Z,11.30
2018-11-14T19:04:01.394Z,11.30
2018-11-14T19:06:37.083Z,11.30
2018-11-14T19:09:12.606Z,11.30
2018-11-14T19:11:48.174Z,11.30
2018-11-14T19:14:23.246Z,11.30
2018-11-14T19:16:58.614Z,11.30
2018-11-14T19:19:34.138Z,11.20
2018-11-14T19:22:09.315Z,11.30
2018-11-14T19:24:45.014Z,11.30
2018-11-14T19:27:20.391Z,11.30
2018-11-14T19:29:55.630Z,11.30
2018-11-14T19:32:31.283Z,11.30
2018-11-14T19:35:08.685Z,11.30
2018-11-14T19:37:44.958Z,11.30
2018-11-14T19:40:21.437Z,11.30
2018-11-14T19:42:57.780Z,11.30
2018-11-14T19:45:34.756Z,11.30
2018-11-14T19:48:10.371Z,11.30
2018-11-14T19:50:45.822Z,11.30
2018-11-14T19:53:21.180Z,11.30
2018-11-14T19:55:56.703Z,11.30
2018-11-14T19:58:32.065Z,11.30
2018-11-14T20:01:07.641Z,11.30
2018-11-14T20:03:42.881Z,11.30
2018-11-14T20:06:18.231Z,11.30
2018-11-14T20:08:53.759Z,11.30
2018-11-14T20:11:29.386Z,11.30
2018-11-14T20:14:04.731Z,11.30
2018-11-14T20:16:40.052Z,11.30
2018-11-14T20:19:15.629Z,11.30
2018-11-14T20:21:51.074Z,11.30
2018-11-14T20:24:26.620Z,11.30
2018-11-14T20:27:02.321Z,11.40
2018-11-14T20:29:37.632Z,11.40
2018-11-14T20:32:13.198Z,11.30
2018-11-14T20:34:48.362Z,11.40
2018-11-14T20:37:23.749Z,11.40
2018-11-14T20:39:59.196Z,11.30
2018-11-14T20:42:34.650Z,11.40
2018-11-14T20:45:13.104Z,11.30
2018-11-14T20:47:48.375Z,11.40
2018-11-14T20:50:24.563Z,11.30
2018-11-14T20:53:02.131Z,11.30
2018-11-14T20:55:37.754Z,11.30
2018-11-14T20:58:13.025Z,11.30
2018-11-14T21:00:48.407Z,11.40
2018-11-14T21:03:23.779Z,11.40
2018-11-14T21:05:59.281Z,11.30
2018-11-14T21:08:34.572Z,11.30
2018-11-14T21:11:10.194Z,11.30
2018-11-14T21:13:45.671Z,11.30
2018-11-14T21:16:21.203Z,11.30
2018-11-14T21:18:56.782Z,11.30
2018-11-14T21:21:32.369Z,11.20
2018-11-14T21:24:07.589Z,11.20
2018-11-14T21:26:43.131Z,11.10
2018-11-14T21:29:18.578Z,11.00
2018-11-14T21:31:54.134Z,11.00
2018-11-14T21:34:29.603Z,11.00
2018-11-14T21:37:05.191Z,10.90
2018-11-14T21:39:40.586Z,10.90
2018-11-14T21:42:16.192Z,10.80
2018-11-14T21:44:51.706Z,10.70
2018-11-14T21:47:35.178Z,10.60
2018-11-14T21:50:10.519Z,10.60
2018-11-14T21:52:46.350Z,10.60
2018-11-14T21:55:22.174Z,10.60
2018-11-14T21:57:57.840Z,10.60
2018-11-14T22:00:34.373Z,10.50
2018-11-14T22:03:10.856Z,10.50
2018-11-14T22:05:46.155Z,10.40
2018-11-14T22:08:21.471Z,10.40
2018-11-14T22:10:57.036Z,10.40
2018-11-14T22:13:32.242Z,10.30
2018-11-14T22:16:07.713Z,10.30
2018-11-14T22:18:42.962Z,10.30
2018-11-14T22:21:18.388Z,10.30
2018-11-14T22:23:53.563Z,10.20
2018-11-14T22:26:29.092Z,10.30
2018-11-14T22:29:04.503Z,10.20
2018-11-14T22:31:40.060Z,10.20
2018-11-14T22:34:15.424Z,10.20
2018-11-14T22:36:50.803Z,10.20
2018-11-14T22:39:25.921Z,10.30
2018-11-14T22:42:01.314Z,10.20
2018-11-14T22:44:36.711Z,10.20
2018-11-14T22:47:12.031Z,10.20
2018-11-14T22:49:47.915Z,10.30
2018-11-14T22:52:23.202Z,10.30
2018-11-14T22:54:58.617Z,10.20
2018-11-14T22:57:34.229Z,10.20
2018-11-14T23:00:15.896Z,10.30
2018-11-14T23:02:52.353Z,10.30
2018-11-14T23:05:27.831Z,10.30
2018-11-14T23:08:03.121Z,10.40
2018-11-14T23:10:38.538Z,10.40
2018-11-14T23:13:14.024Z,10.40
2018-11-14T23:15:49.462Z,10.50
2018-11-14T23:18:24.832Z,10.50
2018-11-14T23:21:00.351Z,10.50
2018-11-14T23:23:35.790Z,10.40
2018-11-14T23:26:10.955Z,10.40
2018-11-14T23:28:46.307Z,10.30
2018-11-14T23:31:21.548Z,10.30
2018-11-14T23:33:56.997Z,10.30
2018-11-14T23:36:32.644Z,10.20
2018-11-14T23:39:11.293Z,10.20
2018-11-14T23:41:46.783Z,10.20
2018-11-14T23:44:22.353Z,10.20
2018-11-14T23:46:57.914Z,10.10
2018-11-14T23:49:33.611Z,10.10
2018-11-14T23:52:09.283Z,10.00
2018-11-14T23:54:44.823Z,10.00
2018-11-14T23:57:20.349Z,9.90
2018-11-14T23:59:55.612Z,9.90
